KSFFKJAC

Guest
Details From KSFF - Felts Fld
To KJAC - Jackson Hole
Flight Number -
Tags Generated
Created
Modified
Stats Distance 369 nm / 684 km
Max Altitude 0 ft / 0 m
Waypoints 3
Social Downloads 0
Likes 0
Share VATSIM

Download

Looking for another format? Having issues loading an existing format? Contact us
Advertisement - Login to hide

Notes

Generated

Route

KSFF TIHQI KJAC

ID Type Via Altitude Latitude Longitude Leg Dist Tot Dist Heading (true) Name
O KSFF APT - 0 ft / 0 m 47.68261˚ -117.32151˚ - 0 nm - Felts Fld
TIHQI FIX - 0 ft / 0 m 43.82581˚ -111.09750˚ 348 nm 348 nm 129° / 134° -
O KJAC APT - 0 ft / 0 m 43.59842˚ -110.74209˚ 20 nm 369 nm 131° / 132° -

Altitude Profile

Advertisement - Login to hide

Weather


0- 5 10 15 20 25 30 35+ Temperature / ° C

Clouds and Precipitation
Forecast for 2017-12-15 00:00 UTC. Updated an hour ago

Ground ~20,000 ft ~40,000 ft Winds

KSFF

Details ICAO KSFF (SFF)
Name Felts Fld
Region United States
Timezone America/Los_Angeles (UTC-8.0)
Stats Elevation 1,953 ft / 595 m (AMSL)
Location 47.683202° -117.321057°
Runways 3
Magnetic Variation 14.540° E

METAR

KSFF 142153Z 32003KT 10SM OVC012 01/M02 A3047 RMK AO2 SLP334 T00111022

Decode

TAF

KSFF 141738Z 1418/1518 33005KT P6SM OVC019 FM141900 VRB03KT P6SM OVC022

Decode

Departure Runways

ID Width Length Bearing (true) Bearing (mag) Surface Threshold Offset Overrun Length
03C 59 ft / 18 m 1,692 ft / 516 m 54.10° 39.56° Grass 0 ft / 0 m 0 ft / 0 m
03L 151 ft / 46 m 4,491 ft / 1,369 m 54.10° 39.56° Concrete 0 ft / 0 m 0 ft / 0 m
03R 75 ft / 23 m 3,053 ft / 931 m 54.13° 39.59° Asphalt 413 ft / 126 m 0 ft / 0 m
21C 59 ft / 18 m 1,692 ft / 516 m 234.10° 219.56° Grass 0 ft / 0 m 0 ft / 0 m
21L 75 ft / 23 m 3,053 ft / 931 m 234.13° 219.59° Asphalt 0 ft / 0 m 0 ft / 0 m
21R 151 ft / 46 m 4,491 ft / 1,369 m 234.11° 219.57° Concrete 0 ft / 0 m 0 ft / 0 m

KJAC

Details ICAO KJAC (JAC)
Name Jackson Hole
Region United States
Timezone America/Denver (UTC-7.0)
Stats Elevation 6,451 ft / 1,966 m (AMSL)
Location 43.607352° -110.737742°
Runways 1
Magnetic Variation 11.397° E

METAR

KJAC 142156Z 00000KT 10SM CLR 01/M08 A3035 RMK AO2 SLP334 T00061083

Decode

TAF

KJAC 141734Z 1418/1518 02006KT P6SM SCT200 FM150800 36006KT P6SM VCFG SCT003 FM151700 18006KT P6SM SCT180 AMD LTD TO CLD VIS AND WIND

Decode

Destination Runways

ID Width Length Bearing (true) Bearing (mag) Surface Threshold Offset Overrun Length
01 151 ft / 46 m 6,285 ft / 1,916 m 19.50° 8.10° Asphalt 0 ft / 0 m 308 ft / 94 m
19 151 ft / 46 m 6,285 ft / 1,916 m 199.50° 188.10° Asphalt 0 ft / 0 m 305 ft / 93 m

Approach Navaids

Runway Type Ident Frequency Range Bearing (true) Bearing (mag) Slope Elevation
19 Localiser IJAC 109.10 MHz 18 nm / 33 km 199.36° 187.96° - 6,408 ft / 1,953 m (AMSL)
19 Glidescope IJAC 109.10 MHz 10 nm / 19 km 199.36° 187.96° 3.00° 6,441 ft / 1,963 m (AMSL)
19 DME IJAC 109.10 MHz 18 nm / 33 km - - - 6,415 ft / 1,955 m (AMSL)